Terminal Aerodrome Forecast
Issued by NWS Cleveland, OH

Home | Current Version | Previous Version | Graphics & Text | Print | Product List | Glossary On
Versions: 1 2 3 4 5 6 7 8 9 10 11 12 13 14 15
000
FTUS41 KCLE 251100
TAFERI
TAF
KERI 251137Z 2512/2612 18012KT P6SM SCT120 BKN200
     FM251400 20012G20KT P6SM SCT060 BKN150
     FM251700 20012G20KT P6SM VCSH BKN050 OVC080
      TEMPO 2523/2601 4SM -TSRA BKN045CB OVC080
     FM260200 20012KT P6SM SCT060 BKN200=

USA.gov is the U.S. government's official web portal to all federal, state and local government web resources and services.